Wetterdaten: Woche 29.08.22 - 04.09.22 (KW35)
Datum Zeit Temp. Aussen Temp. o. S. Temp +5cm Feuchte Auss Luftdruck Regen Sonnenschein Regendauer Solar Windben Empfang
29.08.2022 00:00 16,8 C 15,7 C 12,4 C 73 % 1021,8 hPa 0,0 l/m 0,00 h 0,00 h 0 W/m 6,6 km/h (2 Bft) 97,47 %
29.08.2022 01:00 16,0 C 14,8 C 11,6 C 76 % 1021,8 hPa 0,0 l/m 0,00 h 0,00 h 0 W/m 3,2 km/h (1 Bft) 97,44 %
29.08.2022 02:00 15,1 C 13,5 C 10,7 C 81 % 1021,6 hPa 0,0 l/m 0,00 h 0,00 h 0 W/m 0,0 km/h (0 Bft) 97,07 %
29.08.2022 03:00 14,0 C 12,5 C 9,7 C 84 % 1021,8 hPa 0,0 l/m 0,00 h 0,00 h 0 W/m 0,0 km/h (0 Bft) 99,29 %
29.08.2022 04:00 13,3 C 12,1 C 9,2 C 86 % 1022,0 hPa 0,0 l/m 0,00 h 0,00 h 0 W/m 0,0 km/h (0 Bft) 94,59 %
29.08.2022 05:00 12,7 C 11,5 C 8,7 C 88 % 1021,8 hPa 0,0 l/m 0,00 h 0,00 h 0 W/m 0,0 km/h (0 Bft) 98,53 %
29.08.2022 06:00 12,3 C 11,4 C 8,5 C 89 % 1021,7 hPa 0,0 l/m 0,00 h 0,00 h 5 W/m 0,0 km/h (0 Bft) 97,50 %
29.08.2022 07:00 12,4 C 12,1 C 9,1 C 91 % 1022,0 hPa 0,0 l/m 0,00 h 0,00 h 35 W/m 0,0 km/h (0 Bft) 98,79 %
29.08.2022 08:00 13,6 C 14,2 C 10,6 C 91 % 1022,5 hPa 0,0 l/m 0,10 h 0,00 h 102 W/m 0,0 km/h (0 Bft) 96,23 %
29.08.2022 09:00 15,8 C 17,3 C 12,1 C 83 % 1022,6 hPa 0,0 l/m 0,60 h 0,00 h 243 W/m 1,7 km/h (1 Bft) 98,15 %
29.08.2022 10:00 17,6 C 18,4 C 14,0 C 75 % 1022,7 hPa 0,0 l/m 0,33 h 0,00 h 294 W/m 7,9 km/h (2 Bft) 99,07 %
29.08.2022 11:00 18,9 C 20,2 C 15,4 C 69 % 1022,7 hPa 0,0 l/m 0,80 h 0,00 h 560 W/m 9,6 km/h (2 Bft) 96,44 %
29.08.2022 12:00 20,2 C 24,7 C 17,3 C 64 % 1022,5 hPa 0,0 l/m 0,87 h 0,00 h 635 W/m 9,0 km/h (2 Bft) 97,64 %
29.08.2022 13:00 21,2 C 22,7 C 16,9 C 60 % 1021,9 hPa 0,0 l/m 0,83 h 0,00 h 618 W/m 9,9 km/h (2 Bft) 96,44 %
29.08.2022 14:00 23,0 C 29,9 C 17,9 C 54 % 1021,5 hPa 0,0 l/m 1,00 h 0,00 h 767 W/m 9,1 km/h (2 Bft) 99,23 %
29.08.2022 15:00 24,0 C 27,8 C 18,6 C 51 % 1021,0 hPa 0,0 l/m 1,00 h 0,00 h 674 W/m 7,7 km/h (2 Bft) 96,08 %
29.08.2022 16:00 24,3 C 26,5 C 19,1 C 49 % 1020,5 hPa 0,0 l/m 0,90 h 0,00 h 508 W/m 9,1 km/h (2 Bft) 98,14 %
29.08.2022 17:00 24,7 C 27,6 C 19,9 C 49 % 1020,0 hPa 0,0 l/m 1,00 h 0,00 h 395 W/m 7,8 km/h (2 Bft) 98,01 %
29.08.2022 18:00 24,7 C 26,0 C 19,7 C 48 % 1019,7 hPa 0,0 l/m 0,73 h 0,00 h 199 W/m 7,1 km/h (2 Bft) 96,72 %
29.08.2022 19:00 23,4 C 22,3 C 18,2 C 52 % 1019,6 hPa 0,0 l/m 0,00 h 0,00 h 54 W/m 3,2 km/h (1 Bft) 97,44 %
29.08.2022 20:00 22,1 C 20,6 C 16,6 C 57 % 1019,6 hPa 0,0 l/m 0,00 h 0,00 h 9 W/m 0,5 km/h (0 Bft) 99,07 %
29.08.2022 21:00 21,0 C 19,4 C 15,2 C 60 % 1019,8 hPa 0,0 l/m 0,00 h 0,00 h 0 W/m 0,0 km/h (0 Bft) 95,37 %
29.08.2022 22:00 19,8 C 18,3 C 14,4 C 65 % 1019,9 hPa 0,0 l/m 0,00 h 0,00 h 0 W/m 0,0 km/h (0 Bft) 97,49 %
29.08.2022 23:00 19,1 C 18,0 C 14,0 C 70 % 1019,9 hPa 0,0 l/m 0,00 h 0,00 h 0 W/m 0,6 km/h (0 Bft) 98,29 %
30.08.2022 00:00 18,7 C 17,8 C 13,9 C 73 % 1020,2 hPa 0,0 l/m 0,00 h 0,00 h 0 W/m 0,9 km/h (0 Bft) 97,15 %
30.08.2022 01:00 18,9 C 18,2 C 14,4 C 74 % 1020,2 hPa 0,0 l/m 0,00 h 0,00 h 0 W/m 6,7 km/h (2 Bft) 98,89 %
30.08.2022 02:00 18,9 C 17,9 C 14,4 C 76 % 1020,1 hPa 0,0 l/m 0,00 h 0,00 h 0 W/m 9,0 km/h (2 Bft) 98,10 %
30.08.2022 03:00 18,4 C 17,3 C 13,9 C 79 % 1020,2 hPa 0,0 l/m 0,00 h 0,00 h 0 W/m 5,1 km/h (1 Bft) 96,22 %
30.08.2022 04:00 17,7 C 16,7 C 13,3 C 82 % 1020,2 hPa 0,0 l/m 0,00 h 0,00 h 0 W/m 4,5 km/h (1 Bft) 98,96 %
30.08.2022 05:00 17,1 C 16,2 C 12,8 C 84 % 1020,0 hPa 0,0 l/m 0,00 h 0,00 h 0 W/m 3,5 km/h (1 Bft) 96,92 %
30.08.2022 06:00 16,8 C 16,1 C 12,8 C 85 % 1020,1 hPa 0,0 l/m 0,00 h 0,00 h 6 W/m 5,3 km/h (1 Bft) 97,04 %
30.08.2022 07:00 16,8 C 16,3 C 12,8 C 85 % 1020,4 hPa 0,0 l/m 0,00 h 0,00 h 36 W/m 5,8 km/h (2 Bft) 98,79 %
30.08.2022 08:00 17,6 C 17,3 C 13,6 C 83 % 1020,5 hPa 0,0 l/m 0,10 h 0,00 h 83 W/m 11,4 km/h (2 Bft) 96,08 %
30.08.2022 09:00 19,0 C 19,2 C 15,1 C 79 % 1020,6 hPa 0,0 l/m 0,27 h 0,00 h 185 W/m 11,1 km/h (2 Bft) 98,50 %
30.08.2022 10:00 20,5 C 20,9 C 16,7 C 75 % 1020,7 hPa 0,0 l/m 0,27 h 0,00 h 247 W/m 11,5 km/h (2 Bft) 98,43 %
30.08.2022 11:00 21,7 C 22,3 C 18,0 C 70 % 1020,7 hPa 0,0 l/m 0,33 h 0,00 h 314 W/m 14,1 km/h (3 Bft) 95,80 %
30.08.2022 12:00 23,3 C 24,7 C 19,8 C 65 % 1020,6 hPa 0,0 l/m 0,43 h 0,00 h 387 W/m 15,4 km/h (3 Bft) 98,72 %
30.08.2022 13:00 24,3 C 25,2 C 20,4 C 62 % 1020,3 hPa 0,0 l/m 0,77 h 0,00 h 463 W/m 14,3 km/h (3 Bft) 98,01 %
30.08.2022 14:00 25,3 C 27,7 C 20,8 C 58 % 1020,0 hPa 0,0 l/m 1,00 h 0,00 h 514 W/m 15,0 km/h (3 Bft) 96,47 %
30.08.2022 15:00 25,9 C 27,7 C 21,3 C 56 % 1019,6 hPa 0,0 l/m 1,00 h 0,00 h 537 W/m 14,5 km/h (3 Bft) 99,06 %
30.08.2022 16:00 26,8 C 28,6 C 21,9 C 52 % 1019,2 hPa 0,0 l/m 0,95 h 0,00 h 522 W/m 15,0 km/h (3 Bft) 97,07 %
30.08.2022 17:00 26,4 C 28,0 C 21,8 C 53 % 1018,7 hPa 0,0 l/m 0,82 h 0,00 h 351 W/m 15,4 km/h (3 Bft) 98,91 %
30.08.2022 18:00 25,8 C 26,8 C 21,1 C 54 % 1018,4 hPa 0,0 l/m 0,57 h 0,00 h 172 W/m 14,3 km/h (3 Bft) 95,98 %
30.08.2022 19:00 24,3 C 23,6 C 19,5 C 55 % 1018,6 hPa 0,0 l/m 0,00 h 0,00 h 53 W/m 12,6 km/h (3 Bft) 98,01 %
30.08.2022 20:00 23,2 C 22,2 C 18,4 C 58 % 1019,2 hPa 0,0 l/m 0,00 h 0,00 h 8 W/m 10,8 km/h (2 Bft) 98,43 %
30.08.2022 21:00 22,3 C 21,3 C 17,6 C 58 % 1019,5 hPa 0,0 l/m 0,00 h 0,00 h 0 W/m 9,9 km/h (2 Bft) 96,15 %
30.08.2022 22:00 21,7 C 20,8 C 17,1 C 61 % 1019,6 hPa 0,0 l/m 0,00 h 0,00 h 0 W/m 13,9 km/h (3 Bft) 97,99 %
30.08.2022 23:00 21,2 C 20,1 C 16,7 C 61 % 1019,8 hPa 0,0 l/m 0,00 h 0,00 h 0 W/m 12,8 km/h (3 Bft) 99,15 %
31.08.2022 00:00 20,9 C 20,0 C 16,5 C 61 % 1020,0 hPa 0,0 l/m 0,00 h 0,00 h 0 W/m 10,6 km/h (2 Bft) 94,72 %
31.08.2022 01:00 20,6 C 19,4 C 16,0 C 62 % 1020,2 hPa 0,0 l/m 0,00 h 0,00 h 0 W/m 8,4 km/h (2 Bft) 99,22 %
31.08.2022 02:00 19,7 C 18,7 C 15,1 C 65 % 1020,2 hPa 0,0 l/m 0,00 h 0,00 h 0 W/m 8,5 km/h (2 Bft) 97,72 %
31.08.2022 03:00 18,7 C 17,6 C 14,2 C 71 % 1020,3 hPa 0,0 l/m 0,00 h 0,00 h 0 W/m 10,4 km/h (2 Bft) 96,30 %
31.08.2022 04:00 18,2 C 17,2 C 13,9 C 76 % 1020,4 hPa 0,0 l/m 0,00 h 0,00 h 0 W/m 9,2 km/h (2 Bft) 98,47 %
31.08.2022 05:00 17,6 C 16,6 C 13,0 C 79 % 1020,4 hPa 0,0 l/m 0,00 h 0,00 h 0 W/m 6,0 km/h (2 Bft) 98,08 %
31.08.2022 06:00 16,9 C 15,8 C 12,5 C 82 % 1020,5 hPa 0,0 l/m 0,00 h 0,00 h 0 W/m 4,1 km/h (1 Bft) 95,92 %
31.08.2022 07:00 16,3 C 15,7 C 12,2 C 84 % 1020,7 hPa 0,0 l/m 0,00 h 0,00 h 22 W/m 4,7 km/h (1 Bft) 98,57 %
31.08.2022 08:00 16,8 C 16,6 C 12,9 C 83 % 1020,8 hPa 0,0 l/m 0,00 h 0,00 h 69 W/m 12,3 km/h (3 Bft) 96,16 %
31.08.2022 09:00 18,0 C 18,3 C 14,0 C 79 % 1021,2 hPa 0,0 l/m 0,43 h 0,00 h 176 W/m 11,7 km/h (2 Bft) 97,58 %
31.08.2022 10:00 19,8 C 20,3 C 15,8 C 73 % 1021,4 hPa 0,0 l/m 0,23 h 0,00 h 251 W/m 13,5 km/h (3 Bft) 98,51 %
31.08.2022 11:00 21,2 C 22,8 C 17,6 C 69 % 1021,4 hPa 0,0 l/m 0,77 h 0,00 h 503 W/m 13,6 km/h (3 Bft) 95,96 %
31.08.2022 12:00 23,0 C 27,4 C 20,5 C 64 % 1021,3 hPa 0,0 l/m 1,00 h 0,00 h 683 W/m 14,1 km/h (3 Bft) 97,33 %
31.08.2022 13:00 24,2 C 24,7 C 20,0 C 61 % 1021,2 hPa 0,0 l/m 0,40 h 0,00 h 411 W/m 13,2 km/h (3 Bft) 98,63 %
31.08.2022 14:00 24,6 C 26,1 C 20,3 C 61 % 1020,8 hPa 0,0 l/m 0,47 h 0,00 h 420 W/m 13,4 km/h (3 Bft) 96,15 %
31.08.2022 15:00 24,7 C 25,0 C 20,3 C 61 % 1020,4 hPa 0,0 l/m 0,13 h 0,00 h 283 W/m 15,9 km/h (3 Bft) 98,22 %
31.08.2022 16:00 25,0 C 25,9 C 20,7 C 61 % 1020,1 hPa 0,0 l/m 0,43 h 0,00 h 344 W/m 14,1 km/h (3 Bft) 97,22 %
31.08.2022 17:00 25,4 C 26,7 C 21,0 C 58 % 1019,9 hPa 0,0 l/m 0,73 h 0,00 h 326 W/m 13,0 km/h (3 Bft) 99,22 %
31.08.2022 18:00 24,4 C 23,9 C 19,2 C 59 % 1019,7 hPa 0,0 l/m 0,10 h 0,00 h 89 W/m 9,9 km/h (2 Bft) 96,12 %
31.08.2022 19:00 23,5 C 22,9 C 18,7 C 59 % 1019,7 hPa 0,0 l/m 0,80 h 0,00 h 63 W/m 9,7 km/h (2 Bft) 97,73 %
31.08.2022 20:00 22,4 C 21,2 C 17,5 C 60 % 1020,1 hPa 0,0 l/m 0,07 h 0,00 h 12 W/m 10,5 km/h (2 Bft) 98,22 %
31.08.2022 21:00 21,5 C 20,7 C 16,9 C 61 % 1020,7 hPa 0,0 l/m 0,00 h 0,00 h 0 W/m 11,8 km/h (2 Bft) 96,02 %
31.08.2022 22:00 21,0 C 20,0 C 16,3 C 60 % 1020,8 hPa 0,0 l/m 0,00 h 0,00 h 0 W/m 12,1 km/h (2 Bft) 97,44 %
31.08.2022 23:00 19,9 C 18,8 C 15,2 C 60 % 1020,7 hPa 0,0 l/m 0,00 h 0,00 h 0 W/m 7,6 km/h (2 Bft) 99,00 %
01.09.2022 00:00 18,4 C 17,2 C 13,6 C 65 % 1020,7 hPa 0,0 l/m 0,00 h 0,00 h 0 W/m 4,3 km/h (1 Bft) 95,92 %
01.09.2022 01:00 17,3 C 16,4 C 12,8 C 68 % 1020,7 hPa 0,0 l/m 0,00 h 0,00 h 0 W/m 3,4 km/h (1 Bft) 97,54 %
01.09.2022 02:00 17,0 C 16,0 C 12,5 C 72 % 1020,6 hPa 0,0 l/m 0,00 h 0,00 h 0 W/m 1,0 km/h (0 Bft) 98,56 %
01.09.2022 03:00 16,3 C 15,1 C 11,8 C 75 % 1020,5 hPa 0,0 l/m 0,00 h 0,00 h 0 W/m 0,6 km/h (0 Bft) 97,19 %
01.09.2022 04:00 15,9 C 15,0 C 11,6 C 77 % 1020,6 hPa 0,0 l/m 0,00 h 0,00 h 0 W/m 1,7 km/h (1 Bft) 97,59 %
01.09.2022 05:00 15,3 C 14,1 C 10,8 C 79 % 1020,5 hPa 0,0 l/m 0,00 h 0,00 h 0 W/m 2,0 km/h (1 Bft) 97,45 %
01.09.2022 06:00 14,5 C 13,7 C 10,5 C 81 % 1020,5 hPa 0,0 l/m 0,00 h 0,00 h 5 W/m 1,6 km/h (1 Bft) 98,77 %
01.09.2022 07:00 14,4 C 14,0 C 10,6 C 83 % 1020,7 hPa 0,0 l/m 0,00 h 0,00 h 15 W/m 1,5 km/h (1 Bft) 94,40 %
01.09.2022 08:00 15,3 C 15,1 C 11,5 C 81 % 1020,9 hPa 0,0 l/m 0,03 h 0,00 h 45 W/m 6,4 km/h (2 Bft) 97,59 %
01.09.2022 09:00 17,4 C 17,7 C 13,3 C 75 % 1021,0 hPa 0,0 l/m 0,40 h 0,00 h 169 W/m 7,8 km/h (2 Bft) 99,71 %
01.09.2022 10:00 20,1 C 20,8 C 16,0 C 66 % 1021,0 hPa 0,0 l/m 0,07 h 0,00 h 115 W/m 9,8 km/h (2 Bft) 95,59 %
01.09.2022 11:00 22,4 C 24,1 C 18,3 C 53 % 1020,7 hPa 0,0 l/m 0,60 h 0,00 h 443 W/m 12,4 km/h (3 Bft) 98,49 %
01.09.2022 12:00 24,1 C 28,9 C 21,6 C 47 % 1020,1 hPa 0,0 l/m 1,00 h 0,00 h 717 W/m 13,0 km/h (3 Bft) 97,05 %
01.09.2022 13:00 24,6 C 25,0 C 19,8 C 46 % 1019,8 hPa 0,0 l/m 0,53 h 0,00 h 489 W/m 11,2 km/h (2 Bft) 98,24 %
01.09.2022 14:00 25,8 C 30,5 C 20,3 C 45 % 1019,3 hPa 0,0 l/m 0,53 h 0,00 h 496 W/m 10,5 km/h (2 Bft) 96,94 %
01.09.2022 15:00 26,9 C 29,6 C 21,5 C 43 % 1018,8 hPa 0,0 l/m 0,73 h 0,00 h 592 W/m 10,2 km/h (2 Bft) 97,62 %
01.09.2022 16:00 27,4 C 28,9 C 21,9 C 42 % 1018,3 hPa 0,0 l/m 0,97 h 0,00 h 648 W/m 9,9 km/h (2 Bft) 98,22 %
01.09.2022 17:00 27,2 C 29,6 C 22,3 C 44 % 1017,9 hPa 0,0 l/m 0,77 h 0,00 h 385 W/m 11,6 km/h (2 Bft) 96,44 %
01.09.2022 18:00 26,6 C 28,9 C 22,0 C 44 % 1017,6 hPa 0,0 l/m 0,70 h 0,00 h 239 W/m 12,3 km/h (3 Bft) 97,64 %
01.09.2022 19:00 24,0 C 22,9 C 19,0 C 49 % 1017,5 hPa 0,0 l/m 0,00 h 0,00 h 31 W/m 7,2 km/h (2 Bft) 99,50 %
01.09.2022 20:00 21,9 C 20,6 C 17,1 C 52 % 1017,6 hPa 0,0 l/m 0,00 h 0,00 h 6 W/m 6,8 km/h (2 Bft) 95,74 %
01.09.2022 21:00 20,4 C 19,1 C 15,7 C 56 % 1017,9 hPa 0,0 l/m 0,00 h 0,00 h 0 W/m 5,6 km/h (1 Bft) 98,58 %
01.09.2022 22:00 19,0 C 17,8 C 14,4 C 61 % 1018,0 hPa 0,0 l/m 0,00 h 0,00 h 0 W/m 3,7 km/h (1 Bft) 98,27 %
01.09.2022 23:00 17,9 C 16,7 C 13,4 C 65 % 1018,0 hPa 0,0 l/m 0,00 h 0,00 h 0 W/m 3,5 km/h (1 Bft) 95,73 %
02.09.2022 00:00 17,0 C 15,7 C 12,5 C 69 % 1017,8 hPa 0,0 l/m 0,00 h 0,00 h 0 W/m 2,0 km/h (1 Bft) 98,81 %
02.09.2022 01:00 16,1 C 15,0 C 11,8 C 70 % 1017,6 hPa 0,0 l/m 0,00 h 0,00 h 0 W/m 2,9 km/h (1 Bft) 97,01 %
02.09.2022 02:00 15,4 C 14,4 C 11,1 C 73 % 1017,3 hPa 0,0 l/m 0,00 h 0,00 h 0 W/m 2,7 km/h (1 Bft) 97,73 %
02.09.2022 03:00 15,0 C 13,9 C 11,1 C 75 % 1017,0 hPa 0,0 l/m 0,00 h 0,00 h 0 W/m 0,9 km/h (0 Bft) 97,01 %
02.09.2022 04:00 15,0 C 14,6 C 11,4 C 75 % 1016,8 hPa 0,0 l/m 0,00 h 0,00 h 0 W/m 1,8 km/h (1 Bft) 98,62 %
02.09.2022 05:00 16,1 C 15,6 C 12,3 C 71 % 1016,7 hPa 0,0 l/m 0,00 h 0,00 h 0 W/m 4,3 km/h (1 Bft) 97,31 %
02.09.2022 06:00 16,1 C 14,8 C 11,6 C 70 % 1016,5 hPa 0,0 l/m 0,00 h 0,00 h 6 W/m 2,6 km/h (1 Bft) 96,03 %
02.09.2022 07:00 15,9 C 15,3 C 11,9 C 72 % 1016,5 hPa 0,0 l/m 0,00 h 0,00 h 28 W/m 1,4 km/h (1 Bft) 99,15 %
02.09.2022 08:00 16,9 C 16,5 C 13,0 C 69 % 1016,4 hPa 0,0 l/m 0,00 h 0,00 h 70 W/m 5,0 km/h (1 Bft) 96,80 %
02.09.2022 09:00 18,8 C 19,0 C 15,0 C 65 % 1016,2 hPa 0,0 l/m 0,00 h 0,00 h 174 W/m 8,1 km/h (2 Bft) 96,64 %
02.09.2022 10:00 20,9 C 21,4 C 16,6 C 60 % 1016,1 hPa 0,0 l/m 0,00 h 0,00 h 130 W/m 10,6 km/h (2 Bft) 98,65 %
02.09.2022 11:00 22,6 C 23,4 C 18,6 C 56 % 1015,8 hPa 0,0 l/m 0,17 h 0,00 h 277 W/m 12,0 km/h (2 Bft) 97,06 %
02.09.2022 12:00 24,9 C 28,5 C 22,5 C 49 % 1015,3 hPa 0,0 l/m 0,95 h 0,00 h 695 W/m 14,2 km/h (3 Bft) 97,62 %
02.09.2022 13:00 25,8 C 25,9 C 21,3 C 43 % 1014,8 hPa 0,0 l/m 0,40 h 0,00 h 466 W/m 16,6 km/h (3 Bft) 97,82 %
02.09.2022 14:00 26,6 C 30,4 C 21,2 C 41 % 1014,3 hPa 0,0 l/m 0,90 h 0,00 h 709 W/m 15,2 km/h (3 Bft) 98,07 %
02.09.2022 15:00 27,3 C 28,7 C 21,7 C 40 % 1013,8 hPa 0,0 l/m 0,93 h 0,00 h 641 W/m 14,1 km/h (3 Bft) 97,65 %
02.09.2022 16:00 27,2 C 28,3 C 22,0 C 39 % 1013,3 hPa 0,0 l/m 1,00 h 0,00 h 548 W/m 12,0 km/h (2 Bft) 96,37 %
02.09.2022 17:00 27,6 C 30,8 C 22,8 C 39 % 1012,7 hPa 0,0 l/m 1,00 h 0,00 h 436 W/m 11,2 km/h (2 Bft) 99,37 %
02.09.2022 18:00 27,2 C 29,2 C 22,2 C 40 % 1012,3 hPa 0,0 l/m 0,80 h 0,00 h 214 W/m 9,0 km/h (2 Bft) 97,42 %
02.09.2022 19:00 25,6 C 24,5 C 20,7 C 42 % 1012,1 hPa 0,0 l/m 0,17 h 0,00 h 44 W/m 7,3 km/h (2 Bft) 96,31 %
02.09.2022 20:00 23,6 C 22,3 C 18,7 C 47 % 1012,1 hPa 0,0 l/m 0,03 h 0,00 h 11 W/m 5,6 km/h (1 Bft) 98,08 %
02.09.2022 21:00 21,2 C 19,7 C 15,9 C 55 % 1012,4 hPa 0,0 l/m 0,00 h 0,00 h 0 W/m 3,0 km/h (1 Bft) 98,29 %
02.09.2022 22:00 19,4 C 18,0 C 14,4 C 60 % 1012,3 hPa 0,0 l/m 0,00 h 0,00 h 0 W/m 2,1 km/h (1 Bft) 95,87 %
02.09.2022 23:00 18,1 C 16,7 C 13,2 C 64 % 1012,2 hPa 0,0 l/m 0,00 h 0,00 h 0 W/m 0,2 km/h (0 Bft) 99,29 %
03.09.2022 00:00 16,9 C 15,8 C 12,5 C 67 % 1012,0 hPa 0,0 l/m 0,00 h 0,00 h 0 W/m 0,7 km/h (0 Bft) 96,55 %
03.09.2022 01:00 16,2 C 15,2 C 12,0 C 68 % 1011,9 hPa 0,0 l/m 0,00 h 0,00 h 0 W/m 1,7 km/h (1 Bft) 96,16 %
03.09.2022 02:00 17,1 C 16,6 C 13,3 C 62 % 1011,8 hPa 0,0 l/m 0,00 h 0,00 h 0 W/m 6,1 km/h (2 Bft) 98,01 %
03.09.2022 03:00 17,5 C 16,6 C 13,3 C 60 % 1011,7 hPa 0,0 l/m 0,00 h 0,00 h 0 W/m 4,6 km/h (1 Bft) 97,58 %
03.09.2022 04:00 17,2 C 16,2 C 12,9 C 62 % 1011,7 hPa 0,0 l/m 0,00 h 0,00 h 0 W/m 5,3 km/h (1 Bft) 97,58 %
03.09.2022 05:00 16,5 C 15,5 C 12,2 C 64 % 1011,5 hPa 0,0 l/m 0,00 h 0,00 h 0 W/m 3,3 km/h (1 Bft) 96,72 %
03.09.2022 06:00 15,4 C 13,8 C 10,8 C 69 % 1011,4 hPa 0,0 l/m 0,00 h 0,00 h 5 W/m 1,1 km/h (1 Bft) 99,41 %
03.09.2022 07:00 14,4 C 13,7 C 10,7 C 74 % 1011,5 hPa 0,0 l/m 0,00 h 0,00 h 18 W/m 1,4 km/h (1 Bft) 96,17 %
03.09.2022 08:00 16,2 C 16,3 C 12,7 C 69 % 1011,5 hPa 0,0 l/m 0,00 h 0,00 h 37 W/m 7,1 km/h (2 Bft) 97,34 %
03.09.2022 09:00 19,0 C 18,7 C 14,6 C 60 % 1011,6 hPa 0,0 l/m 0,30 h 0,00 h 155 W/m 12,7 km/h (3 Bft) 99,23 %
03.09.2022 10:00 20,5 C 20,9 C 15,9 C 58 % 1011,8 hPa 0,0 l/m 0,00 h 0,00 h 108 W/m 13,5 km/h (3 Bft) 95,94 %
03.09.2022 11:00 21,9 C 22,6 C 17,7 C 57 % 1011,8 hPa 0,0 l/m 0,23 h 0,00 h 272 W/m 10,8 km/h (2 Bft) 97,65 %
03.09.2022 12:00 23,7 C 26,4 C 20,9 C 56 % 1011,8 hPa 0,0 l/m 0,83 h 0,00 h 573 W/m 14,2 km/h (3 Bft) 98,06 %
03.09.2022 13:00 24,1 C 24,3 C 19,4 C 57 % 1011,7 hPa 0,0 l/m 0,43 h 0,00 h 437 W/m 13,0 km/h (3 Bft) 98,06 %
03.09.2022 14:00 25,5 C 30,1 C 19,9 C 56 % 1011,5 hPa 0,0 l/m 1,00 h 0,00 h 743 W/m 10,9 km/h (2 Bft) 96,92 %
03.09.2022 15:00 26,6 C 28,9 C 21,0 C 55 % 1011,3 hPa 0,0 l/m 1,00 h 0,00 h 678 W/m 9,5 km/h (2 Bft) 97,50 %
03.09.2022 16:00 27,4 C 28,6 C 21,7 C 54 % 1011,2 hPa 0,0 l/m 1,00 h 0,00 h 574 W/m 8,6 km/h (2 Bft) 98,60 %
03.09.2022 17:00 27,5 C 30,3 C 22,2 C 52 % 1011,2 hPa 0,0 l/m 0,93 h 0,00 h 416 W/m 7,3 km/h (2 Bft) 97,58 %
03.09.2022 18:00 27,3 C 29,6 C 21,7 C 52 % 1011,2 hPa 0,0 l/m 0,80 h 0,00 h 204 W/m 5,6 km/h (1 Bft) 96,62 %
03.09.2022 19:00 25,7 C 24,4 C 20,5 C 57 % 1011,4 hPa 0,0 l/m 0,20 h 0,00 h 37 W/m 7,5 km/h (2 Bft) 99,72 %
03.09.2022 20:00 23,7 C 22,3 C 18,7 C 65 % 1012,2 hPa 0,0 l/m 0,00 h 0,00 h 7 W/m 8,4 km/h (2 Bft) 96,00 %
03.09.2022 21:00 22,0 C 20,6 C 17,3 C 72 % 1013,0 hPa 0,0 l/m 0,00 h 0,00 h 0 W/m 7,0 km/h (2 Bft) 98,07 %
03.09.2022 22:00 20,5 C 19,2 C 16,0 C 80 % 1013,5 hPa 0,0 l/m 0,00 h 0,00 h 0 W/m 5,7 km/h (1 Bft) 98,23 %
03.09.2022 23:00 19,4 C 18,0 C 15,1 C 84 % 1013,8 hPa 0,0 l/m 0,00 h 0,00 h 0 W/m 3,6 km/h (1 Bft) 96,37 %
04.09.2022 00:00 18,6 C 17,4 C 14,5 C 86 % 1014,1 hPa 0,0 l/m 0,00 h 0,00 h 0 W/m 4,3 km/h (1 Bft) 97,98 %
04.09.2022 01:00 18,0 C 16,9 C 13,9 C 88 % 1014,3 hPa 0,0 l/m 0,00 h 0,00 h 0 W/m 5,0 km/h (1 Bft) 98,84 %
04.09.2022 02:00 17,5 C 16,4 C 13,4 C 90 % 1014,7 hPa 0,0 l/m 0,00 h 0,00 h 0 W/m 6,0 km/h (2 Bft) 95,66 %
04.09.2022 03:00 17,0 C 16,0 C 12,9 C 92 % 1015,1 hPa 0,0 l/m 0,00 h 0,00 h 0 W/m 4,9 km/h (1 Bft) 98,79 %
04.09.2022 04:00 16,6 C 15,6 C 12,7 C 93 % 1015,4 hPa 0,0 l/m 0,00 h 0,00 h 0 W/m 2,6 km/h (1 Bft) 98,32 %
04.09.2022 05:00 16,1 C 15,0 C 12,2 C 94 % 1015,7 hPa 0,0 l/m 0,00 h 0,00 h 0 W/m 1,3 km/h (1 Bft) 96,37 %
04.09.2022 06:00 15,8 C 15,0 C 12,2 C 95 % 1016,0 hPa 0,0 l/m 0,00 h 0,00 h 5 W/m 2,6 km/h (1 Bft) 99,38 %
04.09.2022 07:00 15,8 C 15,1 C 12,2 C 96 % 1016,8 hPa 0,0 l/m 0,00 h 0,00 h 20 W/m 0,2 km/h (0 Bft) 97,16 %
04.09.2022 08:00 16,4 C 16,2 C 13,0 C 96 % 1017,4 hPa 0,0 l/m 0,00 h 0,00 h 42 W/m 0,2 km/h (0 Bft) 97,65 %
04.09.2022 09:00 17,9 C 18,3 C 14,6 C 93 % 1017,8 hPa 0,0 l/m 0,23 h 0,00 h 135 W/m 4,9 km/h (1 Bft) 97,01 %
04.09.2022 10:00 20,3 C 21,3 C 16,7 C 84 % 1018,2 hPa 0,0 l/m 0,00 h 0,00 h 103 W/m 7,9 km/h (2 Bft) 98,08 %
04.09.2022 11:00 22,9 C 24,5 C 19,1 C 76 % 1018,3 hPa 0,0 l/m 0,40 h 0,00 h 318 W/m 8,3 km/h (2 Bft) 96,65 %
04.09.2022 12:00 25,5 C 29,4 C 23,7 C 67 % 1018,2 hPa 0,0 l/m 0,67 h 0,00 h 497 W/m 10,7 km/h (2 Bft) 99,29 %
04.09.2022 13:00 25,9 C 25,9 C 21,5 C 64 % 1018,2 hPa 0,0 l/m 0,23 h 0,00 h 322 W/m 9,4 km/h (2 Bft) 95,33 %
04.09.2022 14:00 26,9 C 29,3 C 22,2 C 59 % 1018,2 hPa 0,0 l/m 0,50 h 0,00 h 545 W/m 9,0 km/h (2 Bft) 99,43 %
04.09.2022 15:00 28,3 C 29,7 C 22,9 C 51 % 1018,2 hPa 0,0 l/m 0,93 h 0,00 h 574 W/m 12,2 km/h (2 Bft) 98,36 %
04.09.2022 16:00 28,6 C 29,2 C 22,8 C 48 % 1018,3 hPa 0,0 l/m 0,90 h 0,00 h 469 W/m 7,3 km/h (2 Bft) 95,56 %
04.09.2022 17:00 28,7 C 30,2 C 22,9 C 49 % 1018,2 hPa 0,0 l/m 0,87 h 0,00 h 297 W/m 3,8 km/h (1 Bft) 99,00 %
04.09.2022 18:00 28,6 C 29,7 C 22,7 C 50 % 1018,1 hPa 0,0 l/m 1,00 h 0,00 h 190 W/m 3,4 km/h (1 Bft) 98,38 %
04.09.2022 19:00 27,5 C 25,8 C 19,9 C 56 % 1018,1 hPa 0,0 l/m 0,57 h 0,00 h 53 W/m 1,5 km/h (1 Bft) 96,02 %
04.09.2022 20:00 24,8 C 22,3 C 17,3 C 63 % 1018,5 hPa 0,0 l/m 0,00 h 0,00 h 9 W/m 0,0 km/h (0 Bft) 98,36 %
04.09.2022 21:00 22,5 C 20,2 C 15,9 C 70 % 1019,0 hPa 0,0 l/m 0,00 h 0,00 h 0 W/m 0,0 km/h (0 Bft) 97,37 %
04.09.2022 22:00 20,9 C 19,1 C 15,0 C 75 % 1019,2 hPa 0,0 l/m 0,00 h 0,00 h 0 W/m 0,0 km/h (0 Bft) 96,44 %
04.09.2022 23:00 19,9 C 18,2 C 14,2 C 80 % 1019,3 hPa 0,0 l/m 0,00 h 0,00 h 0 W/m 0,0 km/h (0 Bft) 99,57 %
Min-Datum _ 29.08.22 29.08.22 29.08.22 02.09.22 03.09.22 - - - - 29.08.22 29.08.22
_ Min-Zeit 06:26 05:28 05:38 15:48 16:04 - - - - 01:10 22:00
Minimum _ 12,2 C 11,1 C 8,3 C 38 % 1011,1 hPa - - - - 0,0 km/h (0 Bft) 54,55 %
Max-Datum _ 04.09.22 01.09.22 04.09.22 04.09.22 29.08.22 29.08.22 30.08.22 29.08.22 04.09.22 30.08.22 29.08.22
_ Max-Zeit 17:36 14:10 12:10 07:00 11:32 00:00 17:44 00:00 14:34 17:58 00:17
Maximum _ 29,1 C 34,4 C 27,2 C 96 % 1022,9 hPa 0,0 l/m 0,08 h 0,00 h 960 W/m 45,1 km/h
NO (6 Bft)
100,00 %
Durchschnitt _ 20,7 C 20,8 C 16,2 C 66 % 1017,9 hPa #0,0 l/m #45:57 h #0 min. 282 W/m 7,2 km/h (2 Bft) 97,56 %
© 2022 W. Hausmann